SLCO/CIJ METAR and TAF weather

Enter ICAO airport designator
Station Type Date Time Source
SLCO METAR 2019/07/17 12:00 UTC NOAA

SLCO 171200Z 17008KT 9999 BKN007 OVC080 21/19 Q1017


Station Type Date Time Source
SLCO Decoded METAR 2019/07/17 12:00 UTC NOAA

Cobija, Bolivia (SLCO) 11-02S 068-47W 260M
Jul 17, 2019 - 08:00 AM EDT / 2019.07.17 1200 UTC
Wind: from the S (170 degrees) at 9 MPH (8 KT):0
Visibility: greater than 7 mile(s):0
Sky conditions: overcast
Temperature: 69 F (21 C)
Dew Point: 66 F (19 C)
Relative Humidity: 88%
Pressure (altimeter): 30.03 in. Hg (1017 hPa)
ob: SLCO 171200Z 17008KT 9999 BKN007 OVC080 21/19 Q1017
cycle: 12

Station Type Date Time Source
SLCO TAF 2019/07/17 12:57 UTC NOAA

TAF SLCO 171050Z 1712/1812 14007KT 9999 SCT012 BKN080 TX31/1720Z TN19 /1811Z
TEMPO 1718/1722 8000 SHRA SCT020 FEW025CB BKN080

Example: see airport list